Time;durP1;ratioP1;P1;durP2;ratioP2;P2;SDS_P1;SDS_P2;PMS_P1;PMS_P2;Temp;Humidity;BMP_temperature;BMP_pressure;BME280_temperature;BME280_humidity;BME280_pressure;Samples;Min_cycle;Max_cycle;Signal;HPM_P1;HPM_P2
2023/12/24 00:01:13;;;;;;;6.05;5.03;;;;;;;5.23;100.00;62538.75;5110227;28;20200;-79
2023/12/24 00:03:40;;;;;;;4.90;4.43;;;;;;;5.27;100.00;62540.84;5110347;28;20220;-79
2023/12/24 00:06:07;;;;;;;4.70;4.30;;;;;;;5.32;100.00;62542.94;5094092;28;20225;-78
2023/12/24 00:08:35;;;;;;;5.60;4.55;;;;;;;5.38;100.00;62554.19;5098517;28;20196;-78
2023/12/24 00:11:01;;;;;;;6.55;4.50;;;;;;;5.45;100.00;62561.91;5112094;28;20192;-79
2023/12/24 00:13:29;;;;;;;9.60;4.90;;;;;;;5.45;100.00;62554.34;5108686;28;20199;-79
2023/12/24 00:15:56;;;;;;;7.85;4.65;;;;;;;5.50;100.00;62567.06;5110217;28;20215;-78
2023/12/24 00:18:24;;;;;;;6.57;4.75;;;;;;;5.56;100.00;62570.72;5100972;28;20201;-78
2023/12/24 00:20:51;;;;;;;5.65;3.13;;;;;;;6.13;100.00;62623.38;5109269;28;20559;-80
2023/12/24 00:23:18;;;;;;;2.35;2.15;;;;;;;7.03;100.00;62721.25;5108939;28;20226;-80
2023/12/24 00:25:46;;;;;;;4.35;1.52;;;;;;;7.65;100.00;62787.78;5109788;28;20243;-78
2023/12/24 00:28:12;;;;;;;1.92;1.48;;;;;;;8.08;99.97;62824.56;5105416;28;20222;-78
2023/12/24 00:30:39;;;;;;;1.70;1.60;;;;;;;8.47;95.13;62866.38;5109040;28;20215;-80
2023/12/24 00:33:06;;;;;;;2.22;1.40;;;;;;;8.72;92.52;62897.25;5109669;28;20200;-77
2023/12/24 00:35:35;;;;;;;1.75;1.65;;;;;;;8.92;88.59;62912.88;5108489;28;20262;-78
2023/12/24 00:38:02;;;;;;;2.42;1.77;;;;;;;9.09;86.86;62932.97;5105273;28;20200;-79
2023/12/24 00:40:29;;;;;;;1.88;1.77;;;;;;;9.22;81.31;62946.94;5112013;28;20216;-79
2023/12/24 00:42:56;;;;;;;3.75;1.40;;;;;;;9.29;78.36;62951.63;5105528;28;20204;-79
2023/12/24 00:45:23;;;;;;;1.42;1.33;;;;;;;9.27;74.45;62946.50;5108232;28;20249;-78
2023/12/24 00:47:50;;;;;;;1.83;1.13;;;;;;;9.38;73.03;62959.88;5108725;28;20242;-77
2023/12/24 00:50:17;;;;;;;1.10;1.00;;;;;;;9.38;71.12;62957.34;5107967;28;20279;-80
2023/12/24 00:52:47;;;;;;;1.25;0.95;;;;;;;9.32;71.36;62957.25;5107058;28;20204;-78
2023/12/24 00:55:13;;;;;;;1.85;1.42;;;;;;;9.41;72.75;62968.59;5110355;28;20257;-79
2023/12/24 00:57:40;;;;;;;1.50;1.23;;;;;;;9.39;72.58;62958.91;5109037;28;20219;-80
2023/12/24 01:00:08;;;;;;;3.10;1.70;;;;;;;9.30;69.86;62952.66;5107778;28;20258;-81
2023/12/24 01:02:35;;;;;;;2.95;1.10;;;;;;;9.29;68.57;62951.63;5109310;28;20238;-78
2023/12/24 01:05:02;;;;;;;1.05;1.05;;;;;;;9.24;67.85;62951.53;5109864;28;20255;-78
2023/12/24 01:07:28;;;;;;;2.08;1.25;;;;;;;9.22;68.96;62948.94;5106027;28;20228;-79
2023/12/24 01:09:57;;;;;;;2.42;1.10;;;;;;;9.17;69.41;62946.31;5106926;28;20265;-79
2023/12/24 01:12:24;;;;;;;1.67;1.10;;;;;;;9.10;69.89;62934.53;5110232;28;20196;-79
2023/12/24 01:14:51;;;;;;;2.22;1.20;;;;;;;8.99;70.98;62923.16;5105396;28;20432;-78
2023/12/24 01:17:17;;;;;;;1.00;1.00;;;;;;;9.04;70.65;62927.81;5107372;28;20197;-79
2023/12/24 01:19:44;;;;;;;1.33;1.20;;;;;;;9.00;70.77;62924.19;5088838;28;20220;-80
2023/12/24 01:22:11;;;;;;;1.65;1.17;;;;;;;9.03;70.74;62924.22;5094499;28;20200;-80
2023/12/24 01:24:38;;;;;;;1.00;1.00;;;;;;;8.92;69.31;62915.41;5103895;28;20315;-78
2023/12/24 01:27:07;;;;;;;3.25;1.20;;;;;;;8.91;69.81;62916.91;5107673;28;20228;-78
2023/12/24 01:29:33;;;;;;;1.13;1.13;;;;;;;8.90;69.67;62915.88;5095262;28;20224;-77
2023/12/24 01:32:00;;;;;;;2.33;0.95;;;;;;;8.75;70.01;62895.81;5108246;28;20225;-78
2023/12/24 01:34:27;;;;;;;2.42;1.30;;;;;;;8.70;69.69;62892.66;5107690;28;20254;-79
2023/12/24 01:36:54;;;;;;;3.50;1.25;;;;;;;8.71;68.08;62896.25;5107585;28;20266;-79
2023/12/24 01:39:21;;;;;;;1.60;1.40;;;;;;;8.70;69.92;62890.13;5104223;28;20238;-79
2023/12/24 01:41:48;;;;;;;1.17;1.00;;;;;;;8.59;71.55;62881.81;5107582;28;20215;-78
2023/12/24 01:44:16;;;;;;;3.42;1.10;;;;;;;8.62;73.00;62890.00;5104546;28;20418;-80
2023/12/24 01:46:45;;;;;;;1.65;1.40;;;;;;;8.60;73.40;62880.31;5107349;28;20300;-78
2023/12/24 01:49:12;;;;;;;0.80;0.80;;;;;;;8.53;74.82;62872.56;5107526;28;20245;-78
2023/12/24 01:51:39;;;;;;;1.77;1.30;;;;;;;8.50;76.35;62877.06;5107495;28;20196;-76
2023/12/24 01:54:06;;;;;;;2.15;1.10;;;;;;;8.50;74.53;62872.00;5097235;28;20219;-77
2023/12/24 01:56:32;;;;;;;2.25;1.30;;;;;;;8.49;75.52;62876.56;5103279;28;20245;-79
2023/12/24 01:59:00;;;;;;;2.13;1.48;;;;;;;8.44;76.53;62871.38;5105781;28;20287;-78
2023/12/24 02:01:28;;;;;;;1.52;1.42;;;;;;;8.33;78.73;62860.03;5107701;28;20195;-79
2023/12/24 02:03:55;;;;;;;2.05;1.10;;;;;;;8.35;76.67;62861.59;5105227;28;20219;-78
2023/12/24 02:06:22;;;;;;;4.25;1.17;;;;;;;8.36;74.95;62857.53;5105211;28;20263;-80
2023/12/24 02:08:48;;;;;;;1.20;1.20;;;;;;;8.34;74.98;62858.53;5105335;28;20210;-80
2023/12/24 02:11:16;;;;;;;2.35;1.30;;;;;;;8.27;75.11;62850.78;5109239;28;20217;-78
2023/12/24 02:13:43;;;;;;;1.00;1.00;;;;;;;8.24;74.74;62845.16;5108980;28;20196;-78
2023/12/24 02:16:08;;;;;;;1.50;1.40;;;;;;;8.20;74.29;62846.56;5108746;28;20227;-78
2023/12/24 02:18:38;;;;;;;1.20;1.20;;;;;;;8.13;74.97;62831.75;5097109;28;20199;-79
2023/12/24 02:21:06;;;;;;;1.45;1.35;;;;;;;8.03;75.04;62821.41;5106914;28;20195;-80
2023/12/24 02:23:33;;;;;;;2.05;1.23;;;;;;;8.14;75.94;62830.75;5105785;28;20196;-77
2023/12/24 02:26:04;;;;;;;2.42;1.35;;;;;;;8.10;76.32;62831.19;5086713;28;20207;-78
2023/12/24 02:28:30;;;;;;;1.33;1.10;;;;;;;8.02;76.46;62820.41;5099874;28;20323;-79
2023/12/24 02:30:59;;;;;;;1.85;1.08;;;;;;;7.95;75.33;62816.22;5107756;28;20238;-80
2023/12/24 02:33:26;;;;;;;1.52;1.42;;;;;;;8.03;76.27;62821.94;5104657;28;20199;-79
2023/12/24 02:35:53;;;;;;;1.27;1.23;;;;;;;8.01;74.96;62822.41;5104695;28;20226;-78
2023/12/24 02:38:21;;;;;;;1.35;1.25;;;;;;;8.00;74.97;62823.91;5105096;28;20199;-76
2023/12/24 02:40:48;;;;;;;1.65;1.02;;;;;;;8.00;73.86;62823.41;5105484;28;20220;-79
2023/12/24 02:43:15;;;;;;;1.00;1.00;;;;;;;7.99;73.42;62819.81;5092064;28;20196;-77
2023/12/24 02:45:44;;;;;;;0.90;0.90;;;;;;;8.03;71.82;62821.41;5098612;28;20215;-77
2023/12/24 02:48:11;;;;;;;0.70;0.70;;;;;;;8.00;71.33;62823.91;5107205;28;20345;-78
2023/12/24 02:50:38;;;;;;;1.35;1.25;;;;;;;8.01;72.01;62821.88;5103424;28;20272;-77
2023/12/24 02:53:05;;;;;;;0.80;0.80;;;;;;;8.02;70.91;62823.44;5103118;28;20208;-80
2023/12/24 02:55:34;;;;;;;1.85;1.10;;;;;;;8.05;70.67;62824.00;5106137;28;20266;-78
2023/12/24 02:58:00;;;;;;;0.90;0.75;;;;;;;8.02;70.29;62825.97;5104669;28;20400;-78
2023/12/24 03:00:27;;;;;;;1.45;1.35;;;;;;;8.02;70.95;62825.97;5108517;28;20216;-78
2023/12/24 03:02:54;;;;;;;1.63;0.80;;;;;;;8.04;69.93;62825.50;5106690;28;20195;-78
2023/12/24 03:05:21;;;;;;;0.80;0.80;;;;;;;8.01;70.43;62824.41;5107499;28;20232;-77
2023/12/24 03:07:48;;;;;;;1.35;0.80;;;;;;;7.94;71.21;62812.13;5103449;28;20232;-75
2023/12/24 03:10:15;;;;;;;1.25;1.15;;;;;;;7.89;71.60;62812.03;5105507;28;20216;-77
2023/12/24 03:12:44;;;;;;;1.10;1.10;;;;;;;7.83;72.64;62803.84;5103503;28;20200;-77
2023/12/24 03:15:12;;;;;;;0.93;0.93;;;;;;;7.71;73.54;62788.91;5111173;28;20623;-78
2023/12/24 03:17:38;;;;;;;1.08;1.08;;;;;;;7.75;73.70;62792.50;5109488;28;20200;-78
2023/12/24 03:20:06;;;;;;;0.95;0.95;;;;;;;7.75;73.75;62792.50;5110675;28;20556;-77
2023/12/24 03:22:33;;;;;;;0.70;0.70;;;;;;;7.71;73.21;62793.97;5108839;28;20237;-79
2023/12/24 03:25:00;;;;;;;0.93;0.93;;;;;;;7.65;74.41;62784.72;5110617;28;20251;-77
2023/12/24 03:27:27;;;;;;;1.85;1.55;;;;;;;7.66;74.44;62785.75;5108414;28;20223;-78
2023/12/24 03:29:56;;;;;;;0.95;0.95;;;;;;;7.68;74.06;62790.88;5108329;28;20212;-77
2023/12/24 03:32:23;;;;;;;1.30;1.20;;;;;;;7.71;74.62;62791.44;5110798;28;20200;-77
2023/12/24 03:34:50;;;;;;;1.30;1.30;;;;;;;7.69;74.78;62789.38;5109240;28;20295;-78
2023/12/24 03:37:16;;;;;;;0.95;0.88;;;;;;;7.73;74.81;62796.03;5107774;28;20218;-78
2023/12/24 03:39:43;;;;;;;2.58;1.15;;;;;;;7.77;75.07;62800.16;5108873;28;20227;-77
2023/12/24 03:42:11;;;;;;;1.17;1.08;;;;;;;7.73;75.22;62793.50;5109950;28;20200;-77
2023/12/24 03:44:38;;;;;;;0.93;0.93;;;;;;;7.76;75.63;62796.09;5108434;28;20539;-78
2023/12/24 03:47:06;;;;;;;2.17;1.13;;;;;;;7.87;75.37;62804.88;5109370;28;20206;-78
2023/12/24 03:49:33;;;;;;;0.98;0.98;;;;;;;7.86;75.74;62804.38;5108858;28;20220;-78
2023/12/24 03:52:00;;;;;;;1.67;1.20;;;;;;;7.95;74.32;62815.69;5108108;28;20238;-77
2023/12/24 03:54:27;;;;;;;4.10;1.52;;;;;;;7.95;75.85;62813.69;5089252;28;20359;-78
2023/12/24 03:56:54;;;;;;;2.45;1.33;;;;;;;7.83;76.79;62803.31;5089489;28;20231;-78
2023/12/24 03:59:21;;;;;;;2.13;2.03;;;;;;;7.88;76.92;62809.00;5097127;28;20216;-78
2023/12/24 04:01:48;;;;;;;1.70;1.48;;;;;;;7.96;76.43;62819.78;5108590;28;20225;-78
2023/12/24 04:04:16;;;;;;;1.70;1.60;;;;;;;7.94;74.28;62817.72;5111039;28;20520;-77
2023/12/24 04:06:43;;;;;;;3.33;1.17;;;;;;;8.03;74.10;62826.50;5108412;28;20244;-77
2023/12/24 04:09:10;;;;;;;1.55;1.50;;;;;;;8.07;74.89;62828.09;5110261;28;20273;-78
2023/12/24 04:11:37;;;;;;;5.03;1.20;;;;;;;7.99;74.06;62822.34;5109019;28;20200;-77
2023/12/24 04:14:04;;;;;;;1.33;1.30;;;;;;;7.92;74.66;62812.59;5107164;28;20245;-78
2023/12/24 04:16:31;;;;;;;3.42;1.30;;;;;;;7.93;75.34;62811.09;5109157;28;20207;-79
2023/12/24 04:18:57;;;;;;;1.23;1.13;;;;;;;7.88;75.07;62809.00;5095330;28;20279;-78
2023/12/24 04:21:27;;;;;;;1.38;1.27;;;;;;;7.79;76.01;62799.69;5099756;28;20258;-79
2023/12/24 04:23:54;;;;;;;1.20;1.20;;;;;;;7.67;77.52;62787.31;5106588;28;20231;-77
2023/12/24 04:26:21;;;;;;;1.48;1.48;;;;;;;7.60;78.93;62780.09;5106833;28;20409;-79
2023/12/24 04:28:48;;;;;;;0.90;0.90;;;;;;;7.54;79.43;62770.84;5107859;28;20227;-79
2023/12/24 04:31:15;;;;;;;1.60;1.50;;;;;;;7.49;79.94;62765.69;5108407;28;20210;-77
2023/12/24 04:33:42;;;;;;;2.10;1.52;;;;;;;7.50;80.51;62769.75;5106898;28;20541;-77
2023/12/24 04:36:09;;;;;;;1.27;1.17;;;;;;;7.50;81.49;62771.78;5108980;28;20200;-76
2023/12/24 04:38:37;;;;;;;1.58;1.48;;;;;;;7.42;81.55;62761.50;5104605;28;20192;-77
2023/12/24 04:41:04;;;;;;;1.83;1.50;;;;;;;7.54;80.87;62776.41;5098630;28;20224;-78
2023/12/24 04:43:31;;;;;;;2.72;1.17;;;;;;;7.54;80.81;62771.34;5108766;28;20400;-77
2023/12/24 04:45:58;;;;;;;1.80;1.40;;;;;;;7.61;79.43;62781.09;5106972;28;20219;-78
2023/12/24 04:48:25;;;;;;;1.05;1.00;;;;;;;7.73;76.82;62795.53;5108660;28;20227;-77
2023/12/24 04:50:51;;;;;;;0.95;0.95;;;;;;;7.79;75.86;62801.72;5107173;28;20224;-77
2023/12/24 04:53:19;;;;;;;0.60;0.60;;;;;;;7.85;74.58;62805.38;5106311;28;20291;-78
2023/12/24 04:55:48;;;;;;;0.80;0.80;;;;;;;7.92;74.52;62818.19;5108494;28;20242;-79
2023/12/24 04:58:15;;;;;;;0.52;0.52;;;;;;;7.90;73.03;62810.53;5105014;28;20204;-78
2023/12/24 05:00:42;;;;;;;0.30;0.30;;;;;;;7.93;72.83;62811.63;5105365;28;20224;-78
2023/12/24 05:03:09;;;;;;;0.40;0.40;;;;;;;7.90;73.44;62811.03;5107443;28;20245;-77
2023/12/24 05:05:36;;;;;;;0.40;0.40;;;;;;;7.94;72.74;62815.19;5108489;28;20250;-78
2023/12/24 05:08:03;;;;;;;0.30;0.30;;;;;;;7.91;73.03;62814.63;5105954;28;20229;-79
2023/12/24 05:10:30;;;;;;;0.85;0.85;;;;;;;7.94;73.15;62817.19;5103030;28;20454;-79
2023/12/24 05:12:58;;;;;;;1.60;0.40;;;;;;;7.92;73.30;62817.69;5108706;28;20395;-79
2023/12/24 05:15:26;;;;;;;0.50;0.50;;;;;;;7.92;72.46;62815.16;5103249;28;20223;-79
2023/12/24 05:17:53;;;;;;;0.68;0.68;;;;;;;7.92;72.58;62810.56;5103609;28;20264;-80
2023/12/24 05:20:20;;;;;;;0.68;0.68;;;;;;;7.98;73.03;62816.25;5105467;28;20243;-78
2023/12/24 05:22:47;;;;;;;0.75;0.75;;;;;;;8.02;73.01;62820.41;5108851;28;20196;-78
2023/12/24 05:25:14;;;;;;;0.60;0.60;;;;;;;8.01;73.16;62821.88;5100133;28;20215;-79
2023/12/24 05:27:41;;;;;;;0.95;0.95;;;;;;;8.05;73.49;62826.53;5106457;28;20246;-79
2023/12/24 05:30:11;;;;;;;1.35;1.02;;;;;;;8.03;73.86;62827.00;5104443;28;20397;-78
2023/12/24 05:32:38;;;;;;;0.70;0.70;;;;;;;8.02;73.62;62820.41;5087921;28;20238;-78
2023/12/24 05:35:06;;;;;;;0.60;0.60;;;;;;;7.99;73.91;62817.28;5093030;28;20223;-79
2023/12/24 05:37:33;;;;;;;0.43;0.43;;;;;;;7.97;73.99;62817.78;5107511;28;20204;-78
2023/12/24 05:40:00;;;;;;;2.65;0.90;;;;;;;7.90;74.20;62808.00;5106060;28;20258;-78
2023/12/24 05:42:26;;;;;;;1.67;0.80;;;;;;;7.95;74.98;62820.78;5100877;28;20688;-77
2023/12/24 05:44:53;;;;;;;0.70;0.70;;;;;;;7.87;75.42;62805.41;5090639;28;20552;-79
2023/12/24 05:47:22;;;;;;;0.47;0.47;;;;;;;7.89;74.83;62809.50;5107448;28;20499;-77
2023/12/24 05:49:49;;;;;;;0.70;0.70;;;;;;;7.81;76.05;62804.28;5106265;28;20280;-77
2023/12/24 05:52:16;;;;;;;1.02;0.73;;;;;;;7.69;76.90;62789.38;5107152;28;20231;-77
2023/12/24 05:54:43;;;;;;;1.70;0.95;;;;;;;7.74;77.26;62799.59;5106125;28;20228;-77
2023/12/24 05:57:10;;;;;;;0.82;0.82;;;;;;;7.71;76.62;62788.91;5107194;28;20200;-78
2023/12/24 05:59:37;;;;;;;0.63;0.63;;;;;;;7.61;77.57;62783.13;5096943;28;20548;-77
2023/12/24 06:02:04;;;;;;;0.65;0.50;;;;;;;7.59;78.35;62770.94;5095631;28;20209;-80
2023/12/24 06:04:32;;;;;;;0.60;0.60;;;;;;;7.57;78.37;62781.53;5096802;28;20694;-76
2023/12/24 06:07:01;;;;;;;0.93;0.93;;;;;;;7.53;78.79;62775.38;5102396;28;20207;-78
2023/12/24 06:09:28;;;;;;;1.00;1.00;;;;;;;7.59;78.44;62778.53;5096642;28;20277;-77
2023/12/24 06:11:55;;;;;;;1.00;0.73;;;;;;;7.66;75.74;62781.19;5102610;28;20237;-80
2023/12/24 06:14:22;;;;;;;0.30;0.30;;;;;;;7.79;73.93;62799.69;5093660;28;20230;-79
2023/12/24 06:16:50;;;;;;;0.60;0.60;;;;;;;7.89;73.39;62809.50;5099882;28;20207;-79
2023/12/24 06:19:16;;;;;;;0.60;0.60;;;;;;;7.93;72.84;62816.69;5099731;28;20219;-80
2023/12/24 06:21:45;;;;;;;0.50;0.50;;;;;;;8.00;72.67;62818.31;5099745;28;20204;-77
2023/12/24 06:24:12;;;;;;;0.30;0.30;;;;;;;8.14;70.40;62835.31;5098388;28;20216;-78
2023/12/24 06:26:39;;;;;;;1.95;0.50;;;;;;;8.21;69.17;62840.53;5105847;28;20504;-80
2023/12/24 06:29:06;;;;;;;0.50;0.50;;;;;;;8.29;69.50;62853.38;5099089;28;20235;-78
2023/12/24 06:31:33;;;;;;;0.63;0.22;;;;;;;8.37;68.60;62859.09;5094360;28;20211;-78
2023/12/24 06:34:00;;;;;;;0.45;0.40;;;;;;;8.40;68.30;62861.69;5101335;28;20228;-79
2023/12/24 06:36:26;;;;;;;0.30;0.30;;;;;;;8.41;67.87;62862.69;5092855;28;20230;-79
2023/12/24 06:38:55;;;;;;;0.70;0.30;;;;;;;8.46;67.27;62868.38;5094155;28;20208;-77
2023/12/24 06:41:22;;;;;;;0.25;0.25;;;;;;;8.49;67.41;62868.44;5100254;28;20196;-77
2023/12/24 06:43:50;;;;;;;0.20;0.20;;;;;;;8.49;67.15;62876.06;5095007;28;20205;-79
2023/12/24 06:46:17;;;;;;;0.40;0.40;;;;;;;8.58;66.48;62880.25;5104334;28;20197;-76
2023/12/24 06:48:44;;;;;;;0.22;0.22;;;;;;;8.56;66.69;62878.22;5110032;28;20999;-80
2023/12/24 06:51:11;;;;;;;0.25;0.25;;;;;;;8.60;67.25;62882.84;5106696;28;20196;-78
2023/12/24 06:53:38;;;;;;;0.50;0.40;;;;;;;8.56;66.70;62878.72;5101857;28;20193;-80
2023/12/24 06:56:06;;;;;;;0.43;0.30;;;;;;;8.62;66.34;62884.91;5106515;28;20197;-79
2023/12/24 06:58:36;;;;;;;0.20;0.20;;;;;;;8.66;66.11;62886.50;5098349;28;20712;-78
2023/12/24 07:01:03;;;;;;;0.20;0.20;;;;;;;8.70;65.45;62893.19;5099837;28;20200;-78
2023/12/24 07:03:30;;;;;;;0.30;0.30;;;;;;;8.74;64.72;62897.31;5107823;28;20199;-82
2023/12/24 07:05:57;;;;;;;0.45;0.45;;;;;;;8.76;64.31;62896.84;5108680;28;20224;-79
2023/12/24 07:08:24;;;;;;;0.45;0.25;;;;;;;8.76;65.03;62899.38;5112191;28;20223;-79
2023/12/24 07:10:51;;;;;;;0.40;0.40;;;;;;;8.78;64.77;62901.47;5111412;28;20251;-80
2023/12/24 07:13:19;;;;;;;0.17;0.17;;;;;;;8.81;64.06;62904.03;5108524;28;20196;-78
2023/12/24 07:15:46;;;;;;;0.35;0.20;;;;;;;8.90;63.64;62915.88;5111344;28;20232;-77
2023/12/24 07:18:13;;;;;;;0.40;0.40;;;;;;;8.90;63.10;62913.84;5104210;28;20250;-80
2023/12/24 07:20:44;;;;;;;0.52;0.52;;;;;;;8.94;63.17;62920.00;5097139;28;20220;-79
2023/12/24 07:23:11;;;;;;;0.40;0.40;;;;;;;9.00;62.71;62921.13;5102123;28;20200;-80
2023/12/24 07:25:38;;;;;;;0.20;0.20;;;;;;;9.01;62.07;62924.69;5111533;28;20216;-79
2023/12/24 07:28:05;;;;;;;0.40;0.40;;;;;;;9.09;61.59;62930.94;5109444;28;20196;-78
2023/12/24 07:30:33;;;;;;;0.43;0.43;;;;;;;9.12;62.00;62936.59;5110650;28;20220;-80
2023/12/24 07:33:01;;;;;;;0.22;0.22;;;;;;;9.20;60.90;62942.31;5099098;28;20205;-81
2023/12/24 07:35:27;;;;;;;1.30;1.20;;;;;;;9.24;60.67;62948.47;5112496;28;20223;-78
2023/12/24 07:37:54;;;;;;;0.75;0.65;;;;;;;9.27;60.44;62949.56;5108522;28;20353;-79
2023/12/24 07:40:21;;;;;;;0.40;0.40;;;;;;;9.24;60.46;62948.47;5103265;28;20265;-77
2023/12/24 07:42:48;;;;;;;0.30;0.30;;;;;;;9.24;60.55;62946.47;5097086;28;20207;-80
2023/12/24 07:45:16;;;;;;;0.20;0.20;;;;;;;9.27;61.28;62957.16;5110386;28;20223;-79
2023/12/24 07:47:44;;;;;;;0.50;0.50;;;;;;;9.35;60.34;62957.81;5107531;28;20403;-79
2023/12/24 07:50:11;;;;;;;0.30;0.30;;;;;;;9.42;59.90;62966.56;5108878;28;20231;-80
2023/12/24 07:52:38;;;;;;;0.32;0.32;;;;;;;9.39;60.09;62966.00;5105184;28;20200;-80
2023/12/24 07:55:06;;;;;;;0.40;0.40;;;;;;;9.43;59.61;62970.66;5107532;28;20253;-81
2023/12/24 07:57:33;;;;;;;0.40;0.40;;;;;;;9.45;59.65;62975.28;5110011;28;20226;-79
2023/12/24 08:00:00;;;;;;;0.80;0.80;;;;;;;9.51;59.90;62978.94;5105825;28;20258;-79
2023/12/24 08:02:27;;;;;;;0.40;0.40;;;;;;;9.51;59.57;62978.94;5102561;28;20212;-79
2023/12/24 08:04:55;;;;;;;0.60;0.60;;;;;;;9.58;59.58;62985.66;5109480;28;20285;-79
2023/12/24 08:07:23;;;;;;;0.90;0.90;;;;;;;9.71;59.06;62999.63;5092648;28;20378;-79
2023/12/24 08:09:50;;;;;;;1.20;1.10;;;;;;;9.80;58.68;63006.38;5108872;28;20245;-78
2023/12/24 08:12:17;;;;;;;0.50;0.50;;;;;;;9.72;57.31;62995.03;5110966;28;20188;-77
2023/12/24 08:14:44;;;;;;;0.52;0.52;;;;;;;9.71;57.71;62994.53;5109427;28;20227;-79
2023/12/24 08:17:10;;;;;;;1.92;0.82;;;;;;;9.69;57.36;62997.53;5107469;28;20207;-78
2023/12/24 08:19:37;;;;;;;1.35;0.70;;;;;;;9.87;57.85;63011.06;5093513;28;20208;-79
2023/12/24 08:22:06;;;;;;;2.47;0.70;;;;;;;10.07;56.45;63036.84;5091972;28;20238;-78
2023/12/24 08:24:33;;;;;;;0.60;0.52;;;;;;;10.17;56.64;63041.59;5108514;28;20224;-79
2023/12/24 08:27:00;;;;;;;0.70;0.70;;;;;;;10.26;56.27;63058.56;5102606;28;20220;-80
2023/12/24 08:29:27;;;;;;;1.25;1.10;;;;;;;10.55;55.88;63082.94;5096645;28;20397;-80
2023/12/24 08:31:56;;;;;;;0.95;0.82;;;;;;;10.74;53.58;63100.59;5107981;28;20204;-78
2023/12/24 08:34:23;;;;;;;0.80;0.80;;;;;;;10.78;54.62;63107.28;5104855;28;20395;-78
2023/12/24 08:36:51;;;;;;;1.48;1.15;;;;;;;10.90;54.77;63116.63;5104206;28;20196;-79
2023/12/24 08:39:19;;;;;;;1.45;0.57;;;;;;;10.88;54.84;63119.66;5110222;28;20215;-79
2023/12/24 08:41:46;;;;;;;2.40;2.30;;;;;;;10.96;55.18;63123.38;5107131;28;20498;-78
2023/12/24 08:44:13;;;;;;;2.30;2.08;;;;;;;11.06;55.87;63138.31;5110808;28;20215;-77
2023/12/24 08:46:41;;;;;;;2.10;1.92;;;;;;;11.12;55.99;63141.97;5109441;28;20241;-79
2023/12/24 08:49:08;;;;;;;2.28;1.67;;;;;;;11.10;54.37;63134.78;5109060;28;20228;-80
2023/12/24 08:51:35;;;;;;;2.45;2.25;;;;;;;10.98;54.86;63125.44;5109700;28;20196;-78
2023/12/24 08:54:02;;;;;;;1.15;1.15;;;;;;;11.00;54.97;63127.50;5109701;28;20257;-78
2023/12/24 08:56:34;;;;;;;3.20;3.00;;;;;;;11.20;54.59;63147.72;5109211;28;20196;-78
2023/12/24 08:59:01;;;;;;;2.10;1.90;;;;;;;11.04;57.67;63131.66;5109568;28;20234;-79
2023/12/24 09:01:28;;;;;;;3.97;2.28;;;;;;;11.05;57.62;63134.72;5109278;28;20234;-78
2023/12/24 09:03:55;;;;;;;3.05;2.65;;;;;;;11.20;57.91;63150.25;5109316;28;20289;-79
2023/12/24 09:06:22;;;;;;;3.50;2.42;;;;;;;11.01;57.24;63133.13;5109173;28;20253;-78
2023/12/24 09:08:49;;;;;;;2.65;2.05;;;;;;;10.67;58.22;63092.81;5110334;28;20227;-79
2023/12/24 09:11:15;;;;;;;3.45;2.80;;;;;;;10.53;58.38;63080.91;5111636;28;20234;-78
2023/12/24 09:13:44;;;;;;;7.20;6.28;;;;;;;10.61;58.19;63087.16;5109555;28;20207;-79
2023/12/24 09:16:11;;;;;;;3.40;3.20;;;;;;;10.80;58.28;63111.91;5109484;28;20221;-80
2023/12/24 09:18:40;;;;;;;3.47;3.17;;;;;;;10.89;57.96;63115.63;5099565;28;20215;-79
2023/12/24 09:21:07;;;;;;;3.67;3.17;;;;;;;11.11;58.00;63138.88;5094743;28;20256;-80
2023/12/24 09:23:34;;;;;;;7.28;3.35;;;;;;;11.10;56.83;63137.88;5089360;28;20201;-79
2023/12/24 09:26:04;;;;;;;13.60;9.60;;;;;;;10.99;56.71;63129.00;5089656;28;20222;-80
2023/12/24 09:28:31;;;;;;;7.82;6.35;;;;;;;11.11;57.15;63141.44;5089153;28;20348;-79
2023/12/24 09:30:59;;;;;;;7.20;3.40;;;;;;;11.20;57.14;63150.25;5088896;28;20263;-79
2023/12/24 09:33:26;;;;;;;4.03;3.10;;;;;;;10.84;58.30;63107.88;5088799;28;20481;-79
2023/12/24 09:35:53;;;;;;;3.10;2.92;;;;;;;10.78;59.41;63106.75;5088570;28;20216;-80
2023/12/24 09:38:20;;;;;;;5.40;3.95;;;;;;;11.05;59.35;63132.69;5090127;28;20196;-77
2023/12/24 09:40:47;;;;;;;6.78;5.45;;;;;;;11.27;58.38;63160.03;5089703;28;20248;-78
2023/12/24 09:43:14;;;;;;;5.43;4.10;;;;;;;11.39;58.63;63170.44;5106339;28;20215;-79
2023/12/24 09:45:41;;;;;;;4.50;3.83;;;;;;;11.51;58.01;63185.41;5109703;28;20283;-79
2023/12/24 09:48:09;;;;;;;3.80;3.40;;;;;;;11.61;57.29;63188.13;5108296;28;20203;-79
2023/12/24 09:50:37;;;;;;;3.05;2.60;;;;;;;11.76;56.24;63213.38;5107944;28;20435;-80
2023/12/24 09:53:04;;;;;;;3.28;2.80;;;;;;;11.78;56.27;63207.81;5109308;28;20211;-78
2023/12/24 09:55:31;;;;;;;4.53;3.70;;;;;;;11.87;56.28;63219.69;5110093;28;20219;-78
2023/12/24 09:57:58;;;;;;;3.60;3.13;;;;;;;11.80;56.26;63212.44;5107939;28;20195;-79
2023/12/24 10:00:26;;;;;;;3.20;2.80;;;;;;;11.79;58.32;63205.75;5109583;28;20212;-79
2023/12/24 10:02:53;;;;;;;6.30;3.67;;;;;;;12.01;59.40;63233.66;5109347;28;20222;-78
2023/12/24 10:05:21;;;;;;;5.10;4.03;;;;;;;11.80;58.98;63209.88;5109234;28;20504;-78
2023/12/24 10:07:48;;;;;;;4.75;3.03;;;;;;;12.08;59.13;63240.91;5108725;28;20241;-80
2023/12/24 10:10:15;;;;;;;3.97;3.67;;;;;;;12.20;59.03;63248.25;5109318;28;20235;-78
2023/12/24 10:12:42;;;;;;;3.95;3.50;;;;;;;12.13;58.47;63248.66;5107609;28;20524;-79
2023/12/24 10:15:09;;;;;;;4.63;3.05;;;;;;;12.10;57.89;63240.94;5109349;28;20219;-78
2023/12/24 10:17:36;;;;;;;3.92;3.55;;;;;;;12.35;57.29;63266.88;5104639;28;20205;-78
2023/12/24 10:20:04;;;;;;;2.78;2.58;;;;;;;12.42;54.57;63276.69;5087313;28;20255;-79
2023/12/24 10:22:33;;;;;;;8.88;3.08;;;;;;;12.67;54.56;63304.63;5088698;28;20367;-79
2023/12/24 10:25:01;;;;;;;2.40;2.20;;;;;;;12.88;52.71;63323.31;5088918;28;20251;-79
2023/12/24 10:27:31;;;;;;;3.95;3.20;;;;;;;13.21;52.40;63357.56;5089146;28;20255;-79
2023/12/24 10:30:09;;;;;;;3.95;2.80;;;;;;;13.06;52.49;63342.56;5087709;28;20405;-78
2023/12/24 10:32:36;;;;;;;7.00;2.80;;;;;;;13.09;53.25;63345.66;5088140;28;20184;-78
2023/12/24 10:35:03;;;;;;;2.75;2.03;;;;;;;13.41;51.02;63381.41;5087987;28;20262;-78
2023/12/24 10:37:30;;;;;;;2.20;2.00;;;;;;;13.56;51.08;63393.91;5086064;28;20196;-78
2023/12/24 10:40:08;;;;;;;3.00;2.80;;;;;;;13.56;50.35;63394.41;5089350;28;20212;-78
2023/12/24 10:42:36;;;;;;;2.83;2.63;;;;;;;13.57;49.76;63400.03;5087522;28;20204;-78
2023/12/24 10:45:04;;;;;;;2.30;2.10;;;;;;;13.62;49.75;63400.13;5087327;28;20430;-79
2023/12/24 10:47:31;;;;;;;3.67;2.05;;;;;;;13.42;48.82;63381.94;5086876;28;20418;-79
2023/12/24 10:49:58;;;;;;;2.38;1.83;;;;;;;13.37;48.38;63377.25;5086983;28;20232;-78
2023/12/24 10:52:25;;;;;;;2.28;2.17;;;;;;;13.33;49.45;63370.56;5087636;28;20493;-79
2023/12/24 10:54:52;;;;;;;2.00;1.90;;;;;;;13.37;50.07;63376.75;5089429;28;20224;-79
2023/12/24 10:57:25;;;;;;;4.03;2.30;;;;;;;13.54;50.61;63389.78;5087988;28;20200;-80
2023/12/24 11:00:07;;;;;;;4.60;1.92;;;;;;;13.72;51.34;63410.50;5087970;28;20239;-79
2023/12/24 11:02:35;;;;;;;5.00;2.28;;;;;;;13.95;50.90;63436.94;5087329;28;20234;-79
2023/12/24 11:05:03;;;;;;;3.03;2.47;;;;;;;14.13;50.72;63449.97;5088025;28;20234;-78
2023/12/24 11:07:49;;;;;;;5.40;2.63;;;;;;;13.96;52.78;63432.84;5087129;28;20390;-78
2023/12/24 11:10:53;;;;;;;3.05;2.33;;;;;;;13.46;53.05;63381.47;5089257;28;20232;-80
2023/12/24 11:13:46;;;;;;;2.30;2.13;;;;;;;13.64;53.09;63402.72;5088699;28;20199;-78
2023/12/24 11:16:13;;;;;;;3.10;2.30;;;;;;;13.71;52.32;63407.44;5088987;28;20200;-79
2023/12/24 11:18:42;;;;;;;2.05;1.95;;;;;;;13.84;52.03;63426.03;5099628;28;20476;-79
2023/12/24 11:21:10;;;;;;;5.50;2.35;;;;;;;14.08;51.10;63447.84;5108982;28;20199;-80
2023/12/24 11:23:37;;;;;;;2.30;1.90;;;;;;;14.28;51.70;63468.13;5109807;28;20205;-80
2023/12/24 11:26:23;;;;;;;4.07;2.30;;;;;;;14.57;49.92;63501.31;5108319;28;20206;-79
2023/12/24 11:28:51;;;;;;;1.90;1.80;;;;;;;14.78;50.15;63518.03;5104213;28;20195;-80
2023/12/24 11:31:23;;;;;;;3.45;2.15;;;;;;;14.70;50.78;63514.81;5107382;28;20250;-79
2023/12/24 11:33:50;;;;;;;4.07;2.67;;;;;;;14.83;51.20;63528.34;5111181;28;20195;-80
2023/12/24 11:36:19;;;;;;;2.50;2.30;;;;;;;15.09;49.31;63554.84;5111166;28;20214;-78
2023/12/24 11:38:46;;;;;;;4.82;2.17;;;;;;;14.86;50.19;63526.31;5112093;28;20199;-80
2023/12/24 11:41:14;;;;;;;2.75;2.50;;;;;;;14.97;49.20;63542.88;5112669;28;20203;-79